Time;durP1;ratioP1;P1;durP2;ratioP2;P2;SDS_P1;SDS_P2;PMS_P1;PMS_P2;Temp;Humidity;BMP_temperature;BMP_pressure;BME280_temperature;BME280_humidity;BME280_pressure;Samples;Min_cycle;Max_cycle;Signal;HPM_P1;HPM_P2
2022/06/18 00:02:18;;;;;;;6.40;1.90;;;;;;;13.75;66.68;100289.08;105242;1268;60575;-77
2022/06/18 00:05:06;;;;;;;5.40;1.80;;;;;;;13.75;66.42;100284.40;105263;1267;60414;-76
2022/06/18 00:07:56;;;;;;;6.40;1.90;;;;;;;13.75;66.31;100282.80;105249;1268;75580;-78
2022/06/18 00:10:44;;;;;;;6.10;1.90;;;;;;;13.75;66.31;100282.43;105220;1269;68246;-77
2022/06/18 00:13:39;;;;;;;5.60;2.00;;;;;;;13.75;66.33;100280.89;105430;1268;74510;-75
2022/06/18 00:16:27;;;;;;;5.80;1.90;;;;;;;13.74;66.34;100276.63;105413;1268;60534;-73
2022/06/18 00:19:16;;;;;;;5.80;2.00;;;;;;;13.74;66.33;100280.25;105258;1267;60548;-74
2022/06/18 00:22:03;;;;;;;5.20;1.40;;;;;;;13.74;66.42;100284.16;105434;1267;74871;-75
2022/06/18 00:24:51;;;;;;;6.40;1.80;;;;;;;13.73;66.39;100284.35;105250;1268;66827;-74
2022/06/18 00:27:38;;;;;;;6.10;1.90;;;;;;;13.73;66.33;100279.43;105139;1268;73171;-73
2022/06/18 00:30:28;;;;;;;6.40;2.00;;;;;;;13.72;66.52;100274.81;105194;1267;60401;-75
2022/06/18 00:33:16;;;;;;;6.50;1.70;;;;;;;13.72;66.45;100274.30;105252;1268;61145;-76
2022/06/18 00:36:07;;;;;;;6.10;1.80;;;;;;;13.73;66.34;100273.66;105558;1268;76639;-73
2022/06/18 00:38:54;;;;;;;5.80;2.10;;;;;;;13.74;66.17;100270.01;105214;1268;66197;-73
2022/06/18 00:41:44;;;;;;;6.70;2.10;;;;;;;13.77;66.19;100270.15;105248;1265;74250;-75
2022/06/18 00:44:39;;;;;;;6.10;2.00;;;;;;;13.79;66.36;100274.95;105219;1267;60500;-75
2022/06/18 00:47:48;;;;;;;6.90;2.00;;;;;;;13.82;66.18;100274.02;105344;1268;60523;-75
2022/06/18 00:50:45;;;;;;;6.00;1.80;;;;;;;13.84;66.08;100274.69;105286;1266;73700;-75
2022/06/18 00:53:44;;;;;;;6.40;1.70;;;;;;;13.87;66.09;100269.80;105236;1266;68567;-74
2022/06/18 00:57:10;;;;;;;5.40;1.80;;;;;;;13.90;66.02;100267.72;105247;1268;72674;-70
2022/06/18 01:00:32;;;;;;;6.00;1.90;;;;;;;13.89;65.94;100256.23;105160;1268;60392;-70
2022/06/18 01:03:35;;;;;;;7.60;1.90;;;;;;;13.95;65.87;100261.17;105445;1266;62251;-71
2022/06/18 01:06:33;;;;;;;6.10;2.10;;;;;;;13.99;65.55;100252.14;105250;1268;75698;-72
2022/06/18 01:09:20;;;;;;;6.70;1.80;;;;;;;14.04;65.41;100259.95;105252;1268;68511;-76
2022/06/18 01:12:09;;;;;;;7.50;2.10;;;;;;;14.06;65.54;100257.63;105396;1268;73367;-72
2022/06/18 01:15:05;;;;;;;6.60;2.10;;;;;;;14.07;65.56;100251.77;105236;1267;60387;-76
2022/06/18 01:17:54;;;;;;;6.70;2.60;;;;;;;14.07;65.50;100247.32;105037;1268;60472;-72
2022/06/18 01:21:05;;;;;;;6.20;2.20;;;;;;;14.06;65.80;100243.52;105183;1268;75569;-71
2022/06/18 01:24:18;;;;;;;7.90;2.50;;;;;;;14.05;65.86;100236.83;105381;1267;69446;-72
2022/06/18 01:27:09;;;;;;;6.00;2.30;;;;;;;14.04;66.07;100234.44;105578;1268;73287;-72
2022/06/18 01:29:56;;;;;;;5.90;2.10;;;;;;;14.01;66.47;100233.83;105228;1268;60571;-74
2022/06/18 01:32:51;;;;;;;6.80;2.20;;;;;;;13.98;66.66;100233.67;105405;1268;60367;-78
2022/06/18 01:35:43;;;;;;;7.00;2.20;;;;;;;13.95;66.87;100231.05;105391;1267;72603;-75
2022/06/18 01:38:40;;;;;;;6.60;2.00;;;;;;;13.94;66.98;100222.09;105211;1268;69612;-73
2022/06/18 01:41:52;;;;;;;6.30;2.00;;;;;;;13.93;67.13;100216.79;105264;1268;73522;-71
2022/06/18 01:44:54;;;;;;;6.60;2.10;;;;;;;13.93;66.85;100212.54;105287;1268;60873;-72
2022/06/18 01:48:06;;;;;;;5.60;2.00;;;;;;;13.95;67.12;100213.44;105324;1268;61590;-73
2022/06/18 01:51:00;;;;;;;7.30;2.00;;;;;;;13.96;67.02;100207.83;105516;1268;72810;-74
2022/06/18 01:54:06;;;;;;;5.60;1.70;;;;;;;13.96;66.99;100202.63;105404;1267;66789;-74
2022/06/18 01:57:02;;;;;;;5.60;1.80;;;;;;;13.99;67.21;100201.88;105416;1268;73732;-72
2022/06/18 01:59:57;;;;;;;5.80;1.90;;;;;;;14.01;66.83;100197.53;105366;1268;60480;-72
2022/06/18 02:03:03;;;;;;;5.90;2.20;;;;;;;14.06;66.61;100195.15;105488;1268;60412;-73
2022/06/18 02:05:52;;;;;;;5.50;1.70;;;;;;;14.10;66.34;100190.31;105311;1268;75453;-72
2022/06/18 02:08:41;;;;;;;5.30;1.90;;;;;;;14.15;65.94;100181.30;105134;1267;70053;-73
2022/06/18 02:11:29;;;;;;;6.00;1.70;;;;;;;14.20;65.69;100179.09;105296;1267;72955;-74
2022/06/18 02:14:16;;;;;;;5.40;1.70;;;;;;;14.26;65.27;100177.28;105187;1268;60443;-72
2022/06/18 02:17:06;;;;;;;6.20;1.70;;;;;;;14.33;64.85;100168.46;105483;1266;60456;-71
2022/06/18 02:20:18;;;;;;;5.30;1.70;;;;;;;14.39;64.65;100167.16;105056;1268;74486;-71
2022/06/18 02:23:05;;;;;;;5.80;1.50;;;;;;;14.45;64.40;100169.64;105148;1267;68368;-72
2022/06/18 02:25:53;;;;;;;6.20;1.60;;;;;;;14.51;64.09;100166.64;105102;1268;72499;-71
2022/06/18 02:28:42;;;;;;;5.80;1.80;;;;;;;14.55;63.97;100168.59;105133;1267;60396;-73
2022/06/18 02:31:34;;;;;;;11.10;1.90;;;;;;;14.59;63.73;100163.16;105143;1267;60976;-73
2022/06/18 02:34:28;;;;;;;6.40;1.50;;;;;;;14.65;63.41;100163.02;106031;1267;75512;-75
2022/06/18 02:37:27;;;;;;;5.50;1.50;;;;;;;14.70;63.10;100158.67;105915;1268;68338;-73
2022/06/18 02:40:26;;;;;;;5.20;1.40;;;;;;;14.75;62.89;100159.20;105776;1265;73366;-75
2022/06/18 02:43:17;;;;;;;4.60;1.20;;;;;;;14.81;62.77;100164.06;105492;1267;60459;-74
2022/06/18 02:46:04;;;;;;;5.20;1.70;;;;;;;14.85;62.80;100164.41;105368;1267;62971;-73
2022/06/18 02:48:52;;;;;;;5.50;1.60;;;;;;;14.87;62.80;100162.05;105238;1267;74476;-74
2022/06/18 02:51:40;;;;;;;5.30;1.40;;;;;;;14.89;62.54;100161.67;105378;1268;68898;-74
2022/06/18 02:54:27;;;;;;;5.60;1.50;;;;;;;14.91;62.47;100162.41;105286;1268;72753;-74
2022/06/18 02:57:27;;;;;;;4.40;1.30;;;;;;;14.93;62.40;100162.77;105233;1267;61599;-75
2022/06/18 03:00:15;;;;;;;5.20;1.30;;;;;;;14.94;62.32;100159.27;105212;1268;60535;-73
2022/06/18 03:03:10;;;;;;;5.20;1.40;;;;;;;14.96;62.07;100163.52;105240;1268;74365;-75
2022/06/18 03:05:57;;;;;;;5.30;1.50;;;;;;;14.98;61.94;100162.77;105313;1268;69456;-71
2022/06/18 03:08:49;;;;;;;5.50;1.40;;;;;;;15.00;61.97;100160.13;105396;1267;74338;-72
2022/06/18 03:14:43;;;;;;;5.20;1.40;;;;;;;15.05;61.47;100160.91;105347;1266;60523;-72
2022/06/18 03:17:30;;;;;;;5.80;1.40;;;;;;;15.08;61.27;100156.36;105363;1268;74528;-71
2022/06/18 03:20:21;;;;;;;5.60;1.50;;;;;;;15.06;60.98;100147.78;105146;1267;67119;-70
2022/06/18 03:23:16;;;;;;;6.80;1.60;;;;;;;15.10;61.29;100154.17;105084;1267;73482;-74
2022/06/18 03:26:03;;;;;;;6.40;1.60;;;;;;;15.10;61.54;100155.17;105328;1267;60573;-74
2022/06/18 03:28:51;;;;;;;6.70;1.40;;;;;;;15.11;61.75;100150.33;105211;1267;61164;-74
2022/06/18 03:31:37;;;;;;;5.40;1.30;;;;;;;15.10;61.87;100150.59;105108;1268;74868;-74
2022/06/18 03:34:24;;;;;;;5.50;1.50;;;;;;;15.09;62.18;100153.89;105354;1268;69719;-71
2022/06/18 03:37:12;;;;;;;5.20;1.50;;;;;;;15.09;62.26;100151.41;105419;1268;74731;-72
2022/06/18 03:39:59;;;;;;;5.20;1.60;;;;;;;15.08;62.41;100153.31;105031;1267;60566;-70
2022/06/18 03:42:47;;;;;;;5.20;1.40;;;;;;;15.07;62.61;100154.66;105271;1267;60542;-71
2022/06/18 03:45:42;;;;;;;6.10;1.20;;;;;;;15.06;62.32;100153.67;105418;1268;74519;-70
2022/06/18 03:48:59;;;;;;;4.80;1.50;;;;;;;15.04;62.71;100150.85;105188;1270;69463;-71
2022/06/18 03:51:50;;;;;;;6.60;1.50;;;;;;;15.01;63.18;100149.65;105210;1268;74450;-70
2022/06/18 03:54:38;;;;;;;6.00;1.30;;;;;;;14.95;63.36;100152.73;105133;1268;60565;-71
2022/06/18 03:57:27;;;;;;;5.60;1.40;;;;;;;14.93;63.58;100158.66;105172;1267;60841;-72
2022/06/18 04:00:23;;;;;;;5.30;1.40;;;;;;;14.90;64.25;100157.70;105260;1267;74487;-72
2022/06/18 04:03:13;;;;;;;5.80;1.60;;;;;;;14.85;64.34;100154.73;105258;1268;70013;-72
2022/06/18 04:06:00;;;;;;;5.40;1.50;;;;;;;14.81;64.74;100153.33;104907;1268;71950;-72
2022/06/18 04:08:47;;;;;;;5.10;1.30;;;;;;;14.80;64.85;100154.84;106387;1268;60697;-75
2022/06/18 04:11:43;;;;;;;4.90;1.40;;;;;;;14.79;65.06;100154.96;106035;1265;60593;-75
2022/06/18 04:14:30;;;;;;;5.40;1.40;;;;;;;14.79;65.27;100151.86;105558;1265;74561;-75
2022/06/18 04:17:22;;;;;;;5.40;1.30;;;;;;;14.79;65.58;100148.84;105355;1267;66826;-74
2022/06/18 04:20:32;;;;;;;6.40;1.50;;;;;;;14.78;66.16;100145.78;105330;1265;73316;-75
2022/06/18 04:23:21;;;;;;;6.20;1.50;;;;;;;14.73;66.76;100133.56;105290;1268;60670;-77
2022/06/18 04:26:10;;;;;;;5.50;1.30;;;;;;;14.76;67.13;100132.78;105428;1268;60392;-74
2022/06/18 04:29:03;;;;;;;6.20;1.40;;;;;;;14.75;67.49;100125.90;105261;1268;74017;-77
2022/06/18 04:31:50;;;;;;;5.50;1.50;;;;;;;14.74;68.73;100125.93;105241;1268;69426;-76
2022/06/18 04:34:38;;;;;;;4.90;1.30;;;;;;;14.72;68.83;100130.45;105189;1268;72628;-77
2022/06/18 04:37:28;;;;;;;5.70;1.60;;;;;;;14.68;69.30;100135.61;105176;1267;60745;-75
2022/06/18 04:40:33;;;;;;;6.60;1.30;;;;;;;14.61;69.56;100137.66;105832;1268;60619;-77
2022/06/18 04:43:45;;;;;;;6.40;1.40;;;;;;;14.55;69.44;100142.02;105680;1267;75614;-76
2022/06/18 04:46:33;;;;;;;6.00;1.50;;;;;;;14.53;69.66;100132.58;105580;1268;66723;-74
2022/06/18 04:49:20;;;;;;;5.20;1.70;;;;;;;14.52;69.99;100123.35;105483;1265;74551;-74
2022/06/18 04:52:07;;;;;;;5.90;1.60;;;;;;;14.53;70.58;100122.87;105357;1265;60548;-74
2022/06/18 04:55:00;;;;;;;7.70;1.50;;;;;;;14.57;71.17;100121.48;105136;1268;62068;-75
2022/06/18 04:57:48;;;;;;;6.30;1.70;;;;;;;14.63;71.44;100120.17;105289;1268;74767;-77
2022/06/18 05:00:37;;;;;;;6.20;1.60;;;;;;;14.67;72.40;100115.15;105260;1265;69117;-76
2022/06/18 05:03:32;;;;;;;6.90;1.70;;;;;;;14.72;72.34;100108.67;105155;1267;74347;-74
2022/06/18 05:06:22;;;;;;;6.30;1.70;;;;;;;14.79;72.34;100107.02;105293;1268;60511;-76
2022/06/18 05:09:29;;;;;;;6.50;1.70;;;;;;;14.92;72.48;100106.38;105632;1268;60473;-77
2022/06/18 05:12:30;;;;;;;5.70;1.70;;;;;;;15.15;71.95;100107.91;105733;1265;75294;-73
2022/06/18 05:15:40;;;;;;;6.20;1.90;;;;;;;15.50;71.09;100100.77;105543;1265;69602;-75
2022/06/18 05:18:32;;;;;;;6.20;1.90;;;;;;;15.67;70.53;100094.17;105379;1268;71916;-75
2022/06/18 05:21:19;;;;;;;7.80;2.00;;;;;;;15.81;69.86;100095.16;105205;1267;282721;-75
2022/06/18 05:24:06;;;;;;;6.00;1.80;;;;;;;15.92;69.59;100092.64;105694;1267;60495;-73
2022/06/18 05:26:58;;;;;;;6.50;1.90;;;;;;;16.03;69.31;100089.86;105242;1267;74413;-75
2022/06/18 05:29:45;;;;;;;5.50;2.00;;;;;;;16.23;68.71;100080.25;105028;1267;68688;-76
2022/06/18 05:32:32;;;;;;;6.90;2.00;;;;;;;16.40;68.02;100078.66;105562;1267;73354;-77
2022/06/18 05:35:20;;;;;;;6.40;1.90;;;;;;;16.44;67.76;100073.95;105376;1268;60457;-76
2022/06/18 05:38:14;;;;;;;6.20;1.80;;;;;;;16.45;67.10;100079.60;105047;1268;60912;-76
2022/06/18 05:41:01;;;;;;;6.50;1.90;;;;;;;16.43;66.59;100072.96;105292;1271;75504;-75
2022/06/18 05:43:49;;;;;;;6.70;2.30;;;;;;;16.51;66.11;100082.89;105319;1268;66795;-71
2022/06/18 05:46:37;;;;;;;5.70;1.70;;;;;;;16.59;65.55;100074.05;105233;1271;73140;-72
2022/06/18 05:49:25;;;;;;;6.80;2.20;;;;;;;16.72;64.75;100076.13;105215;1270;60468;-71
2022/06/18 05:52:12;;;;;;;6.40;2.10;;;;;;;16.87;63.31;100063.80;104978;1274;60469;-74
2022/06/18 05:54:59;;;;;;;5.90;2.00;;;;;;;17.06;61.92;100052.31;106584;1270;74141;-73
2022/06/18 05:58:01;;;;;;;6.50;1.70;;;;;;;17.24;60.46;100048.55;106513;1268;66830;-71
2022/06/18 06:00:51;;;;;;;6.80;2.80;;;;;;;17.28;59.96;100051.29;106781;1268;71599;-74
2022/06/18 06:03:38;;;;;;;5.80;1.70;;;;;;;17.30;59.18;100049.95;106225;1271;60507;-72
2022/06/18 06:06:25;;;;;;;5.40;1.70;;;;;;;17.31;59.14;100044.38;105707;1268;62033;-73
2022/06/18 06:11:28;;;;;;;6.10;1.80;;;;;;;17.37;58.89;100041.42;105262;1268;75775;-71
2022/06/18 06:12:20;;;;;;;5.80;1.70;;;;;;;17.39;58.14;100037.05;105619;1268;66800;-70
2022/06/18 06:15:08;;;;;;;6.30;1.80;;;;;;;17.44;58.31;100029.16;105345;1268;74291;-75
2022/06/18 06:17:56;;;;;;;5.80;1.60;;;;;;;17.48;57.97;100023.83;105360;1268;60527;-77
2022/06/18 06:20:47;;;;;;;5.90;1.60;;;;;;;17.52;58.17;100019.70;105940;1265;61441;-80
2022/06/18 06:23:34;;;;;;;5.10;1.60;;;;;;;17.56;58.37;100015.34;105480;1265;72757;-76
2022/06/18 06:26:30;;;;;;;6.20;1.70;;;;;;;17.60;58.46;100011.17;105444;1265;66744;-77
2022/06/18 06:29:17;;;;;;;6.10;1.70;;;;;;;17.58;58.70;100003.44;105498;1265;72709;-76
2022/06/18 06:32:05;;;;;;;7.40;2.00;;;;;;;17.43;59.24;99979.04;105617;1265;60478;-75
2022/06/18 06:34:54;;;;;;;7.30;2.20;;;;;;;17.56;59.58;99996.88;105510;1270;60568;-75
2022/06/18 06:37:41;;;;;;;6.80;1.70;;;;;;;17.60;59.63;99986.58;105508;1268;73282;-66
2022/06/18 06:40:30;;;;;;;5.60;1.80;;;;;;;17.63;59.60;99980.33;105427;1265;68443;-74
2022/06/18 06:43:18;;;;;;;6.30;2.00;;;;;;;17.68;59.69;99982.63;105539;1265;71457;-76
2022/06/18 06:46:05;;;;;;;7.10;2.10;;;;;;;17.74;59.75;99978.28;105359;1265;60536;-74
2022/06/18 06:48:52;;;;;;;6.00;1.80;;;;;;;17.84;59.53;99971.39;105260;1265;60561;-76
2022/06/18 06:51:40;;;;;;;6.10;1.80;;;;;;;17.91;59.38;99968.65;105411;1265;75420;-77
2022/06/18 06:54:27;;;;;;;7.20;1.90;;;;;;;18.02;59.38;99968.70;105088;1265;67308;-75
2022/06/18 06:57:22;;;;;;;6.00;1.80;;;;;;;18.11;59.08;99965.94;105572;1265;71673;-75
2022/06/18 07:00:12;;;;;;;6.80;2.10;;;;;;;18.17;59.03;99957.14;105730;1265;60540;-74
2022/06/18 07:02:58;;;;;;;7.60;2.10;;;;;;;18.26;58.93;99949.22;105434;1265;61020;-75
2022/06/18 07:05:47;;;;;;;5.50;1.70;;;;;;;18.46;58.72;99943.52;105415;1265;71907;-76
2022/06/18 07:08:34;;;;;;;7.00;2.00;;;;;;;18.64;57.78;99941.48;105513;1265;66818;-74
2022/06/18 07:11:20;;;;;;;7.80;2.00;;;;;;;18.91;57.66;99936.67;105576;1265;72759;-71
2022/06/18 07:14:07;;;;;;;6.40;1.70;;;;;;;19.18;56.71;99928.55;105378;1268;60498;-74
2022/06/18 07:16:54;;;;;;;7.70;2.20;;;;;;;19.30;56.08;99920.67;105780;1268;60478;-76
2022/06/18 07:19:41;;;;;;;6.80;2.10;;;;;;;19.40;56.23;99921.48;105504;1265;74719;-75
2022/06/18 07:22:28;;;;;;;7.30;2.20;;;;;;;19.54;56.40;99928.27;105482;1265;67958;-76
2022/06/18 07:25:15;;;;;;;8.30;2.30;;;;;;;19.68;56.04;99924.02;105444;1265;71894;-75
2022/06/18 07:28:03;;;;;;;6.30;2.00;;;;;;;19.76;55.77;99917.29;105477;1265;60452;-73
2022/06/18 07:30:49;;;;;;;6.80;2.20;;;;;;;19.79;55.75;99912.95;105322;1265;60425;-74
2022/06/18 07:33:36;;;;;;;6.20;2.00;;;;;;;19.87;55.37;99909.15;105475;1265;74102;-76
2022/06/18 07:36:22;;;;;;;6.90;2.20;;;;;;;20.00;55.21;99908.89;105543;1265;67133;-77
2022/06/18 07:39:09;;;;;;;7.10;2.20;;;;;;;20.06;54.77;99902.75;105537;1265;74328;-74
2022/06/18 07:41:56;;;;;;;6.90;2.00;;;;;;;20.10;54.71;99891.66;105763;1264;60463;-74
2022/06/18 07:44:43;;;;;;;6.30;2.30;;;;;;;20.23;54.66;99890.75;106696;1265;60415;-76
2022/06/18 07:47:30;;;;;;;6.40;2.10;;;;;;;20.32;54.34;99892.05;105951;1265;74067;-83
2022/06/18 07:50:21;;;;;;;6.80;2.30;;;;;;;20.39;54.32;99892.45;105293;1265;67877;-83
2022/06/18 07:53:19;;;;;;;7.10;2.10;;;;;;;20.55;54.01;99893.19;105718;1265;72405;-78
2022/06/18 07:56:08;;;;;;;7.40;2.30;;;;;;;20.69;53.39;99895.48;105703;1268;60594;-81
2022/06/18 07:58:54;;;;;;;6.10;2.00;;;;;;;20.80;53.42;99884.38;105526;1265;60412;-78
2022/06/18 08:01:41;;;;;;;7.00;2.30;;;;;;;20.98;53.10;99885.02;105709;1267;72942;-80
2022/06/18 08:04:28;;;;;;;6.80;2.50;;;;;;;20.99;52.36;99881.66;105543;1265;68453;-80
2022/06/18 08:07:15;;;;;;;7.30;2.40;;;;;;;21.02;52.79;99870.30;105491;1266;71409;-78
2022/06/18 08:10:06;;;;;;;7.70;2.40;;;;;;;21.07;52.77;99866.97;105499;1265;60455;-80
2022/06/18 08:12:54;;;;;;;6.40;2.20;;;;;;;21.22;52.88;99860.45;105497;1265;61949;-78
2022/06/18 08:15:41;;;;;;;5.70;1.90;;;;;;;21.44;52.28;99864.56;105610;1265;73928;-78
2022/06/18 08:18:29;;;;;;;8.00;2.60;;;;;;;21.67;51.93;99859.23;105632;1265;66669;-79
2022/06/18 08:21:42;;;;;;;6.30;2.40;;;;;;;21.94;50.96;99854.30;105750;1266;71460;-79
2022/06/18 08:24:29;;;;;;;7.30;2.50;;;;;;;21.86;50.38;99848.87;105820;1268;60318;-78
2022/06/18 08:27:18;;;;;;;7.40;2.30;;;;;;;21.76;50.06;99845.45;105985;1268;60993;-80
2022/06/18 08:30:06;;;;;;;11.10;2.30;;;;;;;21.74;50.18;99847.33;105343;1268;73988;-76
2022/06/18 08:32:54;;;;;;;6.50;2.10;;;;;;;21.69;50.25;99846.88;105487;1268;67870;-76
2022/06/18 08:35:41;;;;;;;6.20;2.10;;;;;;;21.64;50.46;99846.33;105484;1267;72590;-77
2022/06/18 08:38:29;;;;;;;9.10;2.20;;;;;;;21.77;50.28;99840.27;105652;1268;60299;-79
2022/06/18 08:41:53;;;;;;;8.10;2.70;;;;;;;21.95;50.07;99836.23;105437;1267;60450;-73
2022/06/18 08:45:03;;;;;;;7.00;2.60;;;;;;;22.33;48.71;99831.82;105431;1271;72769;-74
2022/06/18 08:48:31;;;;;;;8.40;2.30;;;;;;;23.10;46.82;99820.40;105204;1271;68321;-74
2022/06/18 08:52:15;;;;;;;7.60;2.30;;;;;;;23.74;44.64;99819.02;105113;1271;71589;-76
2022/06/18 08:56:06;;;;;;;7.10;2.20;;;;;;;24.59;42.44;99806.24;105185;1271;60444;-72
2022/06/18 08:59:16;;;;;;;7.00;2.30;;;;;;;25.03;41.81;99797.65;105606;1271;61013;-76
2022/06/18 09:02:34;;;;;;;5.70;1.90;;;;;;;25.24;41.26;99791.46;105266;1271;74095;-75
2022/06/18 09:06:36;;;;;;;6.80;2.10;;;;;;;25.39;40.23;99789.89;105163;1271;66693;-79
2022/06/18 09:09:44;;;;;;;7.20;2.00;;;;;;;25.18;40.03;99779.54;104738;1278;73199;-78
2022/06/18 09:12:45;;;;;;;7.60;2.10;;;;;;;25.15;40.02;99775.10;104634;1278;60586;-79
2022/06/18 09:15:39;;;;;;;6.50;2.00;;;;;;;25.15;39.91;99773.70;104738;1278;59427;-77
2022/06/18 09:18:41;;;;;;;7.60;2.10;;;;;;;25.06;39.97;99770.12;105334;1279;72739;-79
2022/06/18 09:21:53;;;;;;;6.10;2.10;;;;;;;24.80;40.86;99770.57;104705;1279;68044;-77
2022/06/18 09:24:49;;;;;;;6.40;2.10;;;;;;;24.67;41.13;99767.59;104806;1277;71404;-74
2022/06/18 09:28:06;;;;;;;6.70;2.30;;;;;;;24.73;41.32;99756.13;108290;1275;58953;-77
2022/06/18 09:31:29;;;;;;;6.50;2.00;;;;;;;24.77;41.17;99755.52;107953;1276;59203;-76
2022/06/18 09:34:27;;;;;;;6.40;1.80;;;;;;;24.62;39.56;99753.86;106485;1276;71645;-74
2022/06/18 09:37:33;;;;;;;6.80;2.10;;;;;;;24.88;39.56;99747.69;105418;1276;69684;-76
2022/06/18 09:40:48;;;;;;;7.60;2.20;;;;;;;25.42;38.48;99742.42;104941;1277;73240;-78
2022/06/18 09:44:06;;;;;;;6.60;1.90;;;;;;;26.03;36.91;99737.61;104992;1276;60409;-77
2022/06/18 09:47:05;;;;;;;7.00;1.80;;;;;;;26.69;34.87;99731.60;105511;1268;60347;-78
2022/06/18 09:49:52;;;;;;;5.30;1.40;;;;;;;26.81;35.04;99725.21;105499;1267;73899;-79
2022/06/18 09:52:41;;;;;;;8.50;1.50;;;;;;;26.69;34.71;99714.27;105689;1269;68293;-77
2022/06/18 09:55:49;;;;;;;7.50;1.60;;;;;;;26.79;34.92;99713.11;105411;1266;71328;-78
2022/06/18 09:58:55;;;;;;;7.20;1.80;;;;;;;26.87;34.51;99714.83;105282;1271;60551;-76
2022/06/18 10:01:51;;;;;;;8.90;2.00;;;;;;;26.92;34.89;99713.66;105395;1268;60453;-78
2022/06/18 10:07:51;;;;;;;7.30;2.00;;;;;;;26.44;34.59;99703.77;105444;1268;65590;-80
2022/06/18 10:10:46;;;;;;;6.00;1.70;;;;;;;26.04;35.49;99697.95;105461;1268;73133;-82
2022/06/18 10:13:49;;;;;;;9.20;2.00;;;;;;;25.65;36.13;99699.48;105460;1265;60500;-77
2022/06/18 10:17:19;;;;;;;7.40;2.30;;;;;;;25.32;36.95;99703.29;105605;1266;60354;-82
2022/06/18 10:20:32;;;;;;;8.60;1.90;;;;;;;25.25;37.47;99693.27;105576;1265;72662;-79
2022/06/18 10:24:04;;;;;;;5.90;1.70;;;;;;;25.38;37.18;99692.31;105788;1265;67892;-80
2022/06/18 10:27:23;;;;;;;6.60;1.80;;;;;;;25.79;36.51;99687.41;105872;1265;71727;-76
2022/06/18 10:30:29;;;;;;;7.70;1.90;;;;;;;26.57;35.38;99680.56;105672;1265;60431;-75
2022/06/18 10:33:27;;;;;;;5.60;1.70;;;;;;;27.28;34.15;99677.73;105461;1265;60340;-76
2022/06/18 10:36:38;;;;;;;6.70;1.80;;;;;;;27.45;34.17;99670.58;106085;1265;74558;-83
2022/06/18 10:39:54;;;;;;;6.20;1.80;;;;;;;27.46;33.44;99671.14;105929;1265;68304;-75
2022/06/18 10:43:23;;;;;;;5.50;1.70;;;;;;;27.39;33.97;99669.62;105370;1265;72658;-76
2022/06/18 10:46:18;;;;;;;6.50;2.00;;;;;;;26.94;34.00;99666.17;105730;1265;60450;-77
2022/06/18 10:49:06;;;;;;;8.20;2.50;;;;;;;26.79;34.05;99659.88;105753;1265;60328;-76
2022/06/18 10:51:53;;;;;;;7.00;2.10;;;;;;;26.73;34.11;99658.49;105646;1265;74404;-78
2022/06/18 10:54:39;;;;;;;8.10;2.20;;;;;;;26.57;34.25;99657.69;105678;1265;67799;-78
2022/06/18 10:57:27;;;;;;;7.10;2.20;;;;;;;26.25;34.87;99651.79;105843;1265;71403;-76
2022/06/18 11:00:24;;;;;;;7.30;1.80;;;;;;;26.19;34.96;99647.91;105399;1268;60548;-75
2022/06/18 11:03:28;;;;;;;7.40;2.10;;;;;;;26.20;35.20;99652.41;105648;1268;60344;-74
2022/06/18 11:06:15;;;;;;;8.20;2.30;;;;;;;26.21;35.37;99656.05;105502;1268;74083;-79
2022/06/18 11:09:03;;;;;;;7.40;2.00;;;;;;;26.22;35.66;99650.04;105121;1265;67225;-77
2022/06/18 11:11:58;;;;;;;5.70;1.80;;;;;;;26.39;35.49;99648.60;105186;1265;73338;-73
2022/06/18 11:14:45;;;;;;;8.60;2.10;;;;;;;26.41;35.45;99645.23;105485;1265;60443;-76
2022/06/18 11:17:43;;;;;;;6.30;1.80;;;;;;;26.62;35.22;99644.09;105421;1265;60489;-77
2022/06/18 11:20:31;;;;;;;8.00;2.00;;;;;;;27.31;34.54;99637.05;105989;1265;73351;-81
2022/06/18 11:23:22;;;;;;;7.30;2.50;;;;;;;27.98;33.55;99629.81;105747;1268;68031;-85
2022/06/18 11:26:17;;;;;;;7.20;2.30;;;;;;;28.68;32.29;99629.52;105654;1264;71404;-81
2022/06/18 11:29:13;;;;;;;6.90;2.60;;;;;;;29.10;31.10;99634.21;105362;1268;61787;-82
2022/06/18 11:32:08;;;;;;;11.20;2.10;;;;;;;29.39;31.09;99629.91;105551;1268;60919;-84
2022/06/18 11:35:19;;;;;;;6.60;2.60;;;;;;;29.62;30.64;99622.63;105978;1265;74529;-83
2022/06/18 11:38:33;;;;;;;8.60;2.30;;;;;;;29.64;29.81;99616.08;105925;1265;66807;-79
2022/06/18 11:41:30;;;;;;;6.60;1.90;;;;;;;29.31;29.79;99616.71;105925;1265;73063;-79
2022/06/18 11:44:27;;;;;;;7.10;2.30;;;;;;;29.25;30.35;99612.24;105700;1265;60433;-81
2022/06/18 11:47:26;;;;;;;7.30;2.20;;;;;;;29.22;30.13;99606.34;105706;1265;60338;-81
2022/06/18 11:50:34;;;;;;;6.60;2.20;;;;;;;29.44;30.09;99606.73;105570;1265;73885;-78
2022/06/18 11:53:57;;;;;;;8.80;2.20;;;;;;;29.68;29.81;99594.19;105808;1268;66348;-79
2022/06/18 11:56:56;;;;;;;7.00;2.00;;;;;;;29.49;29.75;99592.17;105695;1265;72743;-81
2022/06/18 12:00:10;;;;;;;7.50;2.00;;;;;;;29.18;30.01;99592.48;105705;1265;60482;-81
2022/06/18 12:03:20;;;;;;;6.30;2.20;;;;;;;29.23;30.35;99580.80;105491;1265;60444;-80
2022/06/18 12:06:43;;;;;;;6.00;1.90;;;;;;;29.01;30.21;99579.31;105462;1265;72900;-80
2022/06/18 12:09:48;;;;;;;6.20;1.90;;;;;;;28.58;30.77;99569.85;105555;1265;67440;-79
2022/06/18 12:12:57;;;;;;;6.30;2.10;;;;;;;28.37;31.17;99565.76;106221;1265;72743;-78
2022/06/18 12:16:34;;;;;;;7.30;2.00;;;;;;;28.43;31.37;99559.77;105646;1265;60568;-77
2022/06/18 12:19:25;;;;;;;6.00;2.40;;;;;;;28.58;30.54;99552.02;105637;1265;60515;-77
2022/06/18 12:22:18;;;;;;;7.60;2.40;;;;;;;28.37;30.50;99542.98;105364;1265;75616;-76
2022/06/18 12:25:38;;;;;;;9.50;5.50;;;;;;;28.33;31.04;99541.56;105379;1265;66930;-75
2022/06/18 12:28:40;;;;;;;9.40;5.00;;;;;;;28.46;30.72;99535.89;105656;1265;72764;-77
2022/06/18 12:31:36;;;;;;;7.50;2.80;;;;;;;28.42;30.35;99535.08;105476;1265;60813;-76
2022/06/18 12:34:49;;;;;;;6.70;2.20;;;;;;;28.31;30.58;99531.35;105455;1265;60524;-77
2022/06/18 12:38:11;;;;;;;8.20;1.80;;;;;;;28.28;30.43;99528.23;105838;1268;75734;-75
2022/06/18 12:41:39;;;;;;;6.90;2.10;;;;;;;28.16;30.54;99518.03;106825;1273;66813;-78
2022/06/18 12:45:02;;;;;;;7.90;2.20;;;;;;;28.13;30.33;99509.90;105693;1273;71585;-78
2022/06/18 12:48:02;;;;;;;5.80;1.90;;;;;;;28.13;30.39;99517.16;106108;1273;60523;-74
2022/06/18 12:51:10;;;;;;;7.40;2.20;;;;;;;28.40;30.65;99513.86;106150;1273;60337;-78
2022/06/18 12:54:22;;;;;;;6.30;2.10;;;;;;;28.90;30.24;99508.08;104887;1273;73975;-76
2022/06/18 12:57:24;;;;;;;6.30;2.20;;;;;;;29.36;29.40;99504.27;104868;1273;68118;-73
2022/06/18 13:00:30;;;;;;;6.60;2.10;;;;;;;29.42;28.91;99498.02;104684;1274;74300;-78
2022/06/18 13:03:50;;;;;;;6.30;2.30;;;;;;;29.17;29.56;99492.35;104835;1273;61083;-74
2022/06/18 13:07:00;;;;;;;6.60;2.20;;;;;;;29.24;29.40;99489.34;104957;1273;60649;-76
2022/06/18 13:10:11;;;;;;;6.30;2.30;;;;;;;29.05;29.05;99490.59;105173;1273;74084;-76
2022/06/18 13:13:19;;;;;;;7.00;1.80;;;;;;;28.86;29.81;99487.92;105115;1273;67090;-76
2022/06/18 13:16:20;;;;;;;6.70;2.50;;;;;;;28.68;30.30;99482.11;105330;1273;72745;-72
2022/06/18 13:19:16;;;;;;;7.50;2.70;;;;;;;28.69;30.67;99480.87;105217;1267;60642;-73
2022/06/18 13:22:04;;;;;;;9.30;2.30;;;;;;;28.76;30.61;99471.11;105354;1267;61838;-74
2022/06/18 13:28:26;;;;;;;9.10;2.50;;;;;;;28.77;30.81;99473.30;105679;1265;67965;-74
2022/06/18 13:31:35;;;;;;;7.20;2.10;;;;;;;28.81;30.77;99473.25;105720;1265;71627;-76
2022/06/18 13:34:46;;;;;;;6.50;2.30;;;;;;;29.04;30.55;99468.38;105732;1265;60497;-78
2022/06/18 13:37:48;;;;;;;8.70;2.40;;;;;;;29.11;30.17;99462.17;105432;1268;60665;-78
2022/06/18 13:41:04;;;;;;;8.70;2.20;;;;;;;29.08;30.18;99461.46;105390;1265;74006;-80
2022/06/18 13:44:03;;;;;;;6.40;2.20;;;;;;;29.01;30.51;99462.27;105426;1264;66622;-78
2022/06/18 13:47:04;;;;;;;10.20;2.60;;;;;;;29.04;30.75;99465.16;105560;1265;72222;-76
2022/06/18 13:50:22;;;;;;;7.60;2.70;;;;;;;29.11;30.96;99457.55;105714;1265;60578;-76